テルアビブ / ベン・グリオン の空港の天気 - METARとTAF

ベン・グリオン国際空港(テルアビブ) ( LLBG / TLV ) - イスラエル ロード / テルアビブ
飛行場実況気象(Metar)
観測時間07/18 16:50 IDT (07/18 13:50 UTC)
風向・風速西北西 6m/s
視程10km以上
天気現象
少しの雲 雲底高度 1070m
気温30℃
湿度55%
気圧1008hPa
METARLLBG 181350Z 29011KT 9999 FEW035 30/20 Q1008 NOSIG
過去の天気等 Google飛行場航空写真 Wunderground天気予報

過去48時間のMETAR

飛行場予報(TAF)
発表時間: 7/18 14:12 IDT (7/18 11:12 UTC)
予報対象時間: 18日15時 IDT ~ 19日15時 IDT
風向・風速西北西 5m/s
視程10km以上
少しの雲 雲底高度 1070m
18日19時 IDT ~ 18日21時 IDT に徐々に
風向・風速不定 2m/s
全天の4割程度の雲 雲底高度 760m
19日0時 IDT ~ 19日8時 IDT に一時的に
風向・風速南南東 3m/s
全天の8割程度の雲 雲底高度 760m
19日9時 IDT ~ 19日11時 IDT に徐々に
風向・風速西北西 5m/s
少しの雲 雲底高度 910m
TAF LLBG 181112Z 1812/1912 29010KT 9999 FEW035
BECMG 1816/1818 VRB03KT SCT025
TEMPO 1821/1905 16005KT BKN025
BECMG 1906/1908 29010KT FEW030 TX32/1812Z TN25/1903Z